createdAt,value
2023-05-01T00:00:37.673Z,9.70
2023-05-01T00:03:24.293Z,9.70
2023-05-01T00:06:11.316Z,9.60
2023-05-01T00:08:58.196Z,9.60
2023-05-01T00:11:46.298Z,9.50
2023-05-01T00:14:33.069Z,9.50
2023-05-01T00:17:19.735Z,9.50
2023-05-01T00:20:07.417Z,9.50
2023-05-01T00:22:53.848Z,9.50
2023-05-01T00:25:40.538Z,9.70
2023-05-01T00:28:28.348Z,9.80
2023-05-01T00:31:15.453Z,9.90
2023-05-01T00:34:02.565Z,9.90
2023-05-01T00:36:49.882Z,9.90
2023-05-01T00:39:36.849Z,10.00
2023-05-01T00:42:23.523Z,10.00
2023-05-01T00:45:12.131Z,10.00
2023-05-01T00:47:58.628Z,10.20
2023-05-01T00:50:46.572Z,10.20
2023-05-01T00:53:34.992Z,10.10
2023-05-01T00:56:21.573Z,10.20
2023-05-01T00:59:08.527Z,9.90
2023-05-01T01:01:56.909Z,9.90
2023-05-01T01:04:47.472Z,9.70
2023-05-01T01:07:42.678Z,9.60
2023-05-01T01:10:36.375Z,9.50
2023-05-01T01:13:30.074Z,9.40
2023-05-01T01:16:22.748Z,9.60
2023-05-01T01:19:35.174Z,9.50
2023-05-01T01:22:27.431Z,9.60
2023-05-01T01:26:12.466Z,9.60
2023-05-01T01:29:18.460Z,9.70
2023-05-01T01:32:19.102Z,9.50
2023-05-01T01:35:11.302Z,9.50
2023-05-01T01:38:02.555Z,9.50
2023-05-01T01:40:56.308Z,9.50
2023-05-01T01:43:47.381Z,9.40
2023-05-01T01:46:38.182Z,9.40
2023-05-01T01:49:27.355Z,9.40
2023-05-01T01:52:17.437Z,9.40
2023-05-01T01:55:07.556Z,9.50
2023-05-01T01:57:54.849Z,9.50
2023-05-01T02:00:43.470Z,9.60
2023-05-01T02:03:32.800Z,9.60
2023-05-01T02:06:20.396Z,9.50
2023-05-01T02:09:09.726Z,9.50
2023-05-01T02:11:57.180Z,9.60
2023-05-01T02:14:43.875Z,9.80
2023-05-01T02:17:31.520Z,9.80
2023-05-01T02:20:19.036Z,10.00
2023-05-01T02:23:08.013Z,10.00
2023-05-01T02:25:58.399Z,10.00
2023-05-01T02:28:45.589Z,10.00
2023-05-01T02:31:32.762Z,10.10
2023-05-01T02:34:19.604Z,10.10
2023-05-01T02:37:07.195Z,10.10
2023-05-01T02:39:55.152Z,10.10
2023-05-01T02:42:44.705Z,10.10
2023-05-01T02:45:33.198Z,10.00
2023-05-01T02:48:24.919Z,10.00
2023-05-01T02:51:11.739Z,10.00
2023-05-01T02:53:59.194Z,10.10
2023-05-01T02:56:45.761Z,10.10
2023-05-01T02:59:35.262Z,10.20
2023-05-01T03:02:21.820Z,10.20
2023-05-01T03:05:08.899Z,10.30
2023-05-01T03:07:55.347Z,10.30
2023-05-01T03:10:43.178Z,10.40
2023-05-01T03:13:29.694Z,10.40
2023-05-01T03:16:17.419Z,10.40
2023-05-01T03:19:05.295Z,10.40
2023-05-01T03:21:52.385Z,10.40
2023-05-01T03:24:38.874Z,10.50
2023-05-01T03:27:25.883Z,10.40
2023-05-01T03:30:14.058Z,10.40
2023-05-01T03:33:03.368Z,10.20
2023-05-01T03:36:01.559Z,10.40
2023-05-01T03:38:47.928Z,10.30
2023-05-01T03:41:53.204Z,10.40
2023-05-01T03:44:43.866Z,10.50
2023-05-01T03:47:30.506Z,10.40
2023-05-01T03:50:18.808Z,10.40
2023-05-01T03:53:08.563Z,10.40
2023-05-01T03:55:55.236Z,10.40
2023-05-01T03:58:41.895Z,10.50
2023-05-01T04:01:28.637Z,10.40
2023-05-01T04:04:16.020Z,10.40
2023-05-01T04:07:09.307Z,10.50
2023-05-01T04:09:56.593Z,10.50
2023-05-01T04:12:43.654Z,10.50
2023-05-01T04:15:29.983Z,10.60
2023-05-01T04:18:16.922Z,10.50
2023-05-01T04:21:03.734Z,10.50
2023-05-01T04:23:51.634Z,10.50
2023-05-01T04:26:39.028Z,10.40
2023-05-01T04:29:30.036Z,10.30
2023-05-01T04:32:17.188Z,10.10
2023-05-01T04:35:04.788Z,10.10
2023-05-01T04:37:51.482Z,10.10
2023-05-01T04:40:39.310Z,10.00
2023-05-01T04:43:26.120Z,10.00
2023-05-01T04:46:13.282Z,10.10
2023-05-01T04:49:00.477Z,10.10
2023-05-01T04:51:47.218Z,10.20
2023-05-01T04:54:35.972Z,10.20
2023-05-01T04:57:24.420Z,10.30
2023-05-01T05:00:12.534Z,10.20
2023-05-01T05:03:07.925Z,10.20
2023-05-01T05:05:54.727Z,10.30
2023-05-01T05:08:41.570Z,10.40
2023-05-01T05:11:29.809Z,10.30
2023-05-01T05:14:20.681Z,10.30
2023-05-01T05:17:07.673Z,10.30
2023-05-01T05:19:54.303Z,10.30
2023-05-01T05:22:41.394Z,10.50
2023-05-01T05:25:42.852Z,10.70
2023-05-01T05:28:30.244Z,10.80
2023-05-01T05:31:18.462Z,10.90
2023-05-01T05:34:05.396Z,10.90
2023-05-01T05:36:52.332Z,11.10
2023-05-01T05:39:43.263Z,11.10
2023-05-01T05:42:30.217Z,11.10
2023-05-01T05:45:23.440Z,11.10
2023-05-01T05:48:11.581Z,11.10
2023-05-01T05:51:00.394Z,11.10
2023-05-01T05:53:47.606Z,11.10
2023-05-01T05:56:34.502Z,11.30
2023-05-01T05:59:21.536Z,11.30
2023-05-01T06:02:08.723Z,11.30
2023-05-01T06:04:57.948Z,11.40
2023-05-01T06:07:47.995Z,11.40
2023-05-01T06:10:34.657Z,11.40
2023-05-01T06:13:21.495Z,11.50
2023-05-01T06:16:09.353Z,11.60
2023-05-01T06:18:56.201Z,11.70
2023-05-01T06:21:44.471Z,11.70
2023-05-01T06:24:31.587Z,11.60
2023-05-01T06:27:19.675Z,11.60
2023-05-01T06:30:09.264Z,11.70
2023-05-01T06:32:59.018Z,11.80
2023-05-01T06:35:46.221Z,11.80
2023-05-01T06:38:34.285Z,11.90
2023-05-01T06:41:21.983Z,11.90
2023-05-01T06:44:08.501Z,12.00
2023-05-01T06:46:56.745Z,12.10
2023-05-01T06:49:44.425Z,12.20
2023-05-01T06:52:31.451Z,12.20
2023-05-01T06:55:19.981Z,12.30
2023-05-01T06:58:16.038Z,12.20
2023-05-01T07:01:10.240Z,12.30
2023-05-01T07:03:57.070Z,12.30
2023-05-01T07:06:43.520Z,12.30
2023-05-01T07:09:30.382Z,12.30
2023-05-01T07:12:18.274Z,12.40
2023-05-01T07:15:06.159Z,12.60
2023-05-01T07:17:52.770Z,12.70
2023-05-01T07:20:39.665Z,12.70
2023-05-01T07:23:27.362Z,12.70
2023-05-01T07:26:14.092Z,12.70
2023-05-01T07:29:02.246Z,12.80
2023-05-01T07:31:49.178Z,12.80
2023-05-01T07:34:35.734Z,12.80
2023-05-01T07:37:22.586Z,12.90
2023-05-01T07:40:09.647Z,13.00
2023-05-01T07:42:56.296Z,13.00
2023-05-01T07:45:55.077Z,13.00
2023-05-01T07:48:41.578Z,13.20
2023-05-01T07:51:27.969Z,13.20
2023-05-01T07:54:16.064Z,13.40
2023-05-01T07:57:04.346Z,13.50
2023-05-01T07:59:55.576Z,13.50
2023-05-01T08:02:44.455Z,13.60
2023-05-01T08:05:31.610Z,13.80
2023-05-01T08:08:20.632Z,14.00
2023-05-01T08:11:07.131Z,13.90
2023-05-01T08:13:53.666Z,13.80
2023-05-01T08:16:40.661Z,13.90
2023-05-01T08:19:28.863Z,14.00
2023-05-01T08:22:15.379Z,14.10
2023-05-01T08:25:01.817Z,14.10
2023-05-01T08:27:48.938Z,14.30
2023-05-01T08:30:35.348Z,14.40
2023-05-01T08:33:22.292Z,14.50
2023-05-01T08:36:11.234Z,14.50
2023-05-01T08:38:57.978Z,14.80
2023-05-01T08:41:48.427Z,15.10
2023-05-01T08:44:39.447Z,15.30
2023-05-01T08:47:27.570Z,15.40
2023-05-01T08:50:15.440Z,15.50
2023-05-01T08:53:04.577Z,15.70
2023-05-01T08:55:52.653Z,15.90
2023-05-01T08:58:39.808Z,16.00
2023-05-01T09:01:26.666Z,16.20
2023-05-01T09:04:15.442Z,16.40
2023-05-01T09:07:02.445Z,16.60
2023-05-01T09:09:50.316Z,16.90
2023-05-01T09:12:37.545Z,17.00
2023-05-01T09:15:24.883Z,17.20
2023-05-01T09:18:12.195Z,17.00
2023-05-01T09:20:59.331Z,16.80
2023-05-01T09:23:45.956Z,16.80
2023-05-01T09:26:36.920Z,16.60
2023-05-01T09:29:45.512Z,16.30
2023-05-01T09:32:32.022Z,16.10
2023-05-01T09:35:18.980Z,16.20
2023-05-01T09:38:05.993Z,16.20
2023-05-01T09:40:56.312Z,16.30
2023-05-01T09:43:50.983Z,16.10
2023-05-01T09:46:43.749Z,16.40
2023-05-01T09:49:48.189Z,16.70
2023-05-01T09:52:35.172Z,17.00
2023-05-01T09:55:25.378Z,17.40
2023-05-01T09:58:28.297Z,17.70
2023-05-01T10:01:16.309Z,18.00
2023-05-01T10:04:03.565Z,18.00
2023-05-01T10:06:50.619Z,18.20
2023-05-01T10:09:37.361Z,18.40
2023-05-01T10:12:26.117Z,18.40
2023-05-01T10:15:24.589Z,18.30
2023-05-01T10:18:15.676Z,18.20
2023-05-01T10:21:03.073Z,18.30
2023-05-01T10:23:49.736Z,18.40
2023-05-01T10:26:36.547Z,18.20
2023-05-01T10:29:25.149Z,17.90
2023-05-01T10:32:12.155Z,17.80
2023-05-01T10:35:02.418Z,17.60
2023-05-01T10:37:50.582Z,17.50
2023-05-01T10:40:50.329Z,17.40
2023-05-01T10:43:37.287Z,17.20
2023-05-01T10:46:30.781Z,17.10
2023-05-01T10:49:18.153Z,17.30
2023-05-01T10:52:05.932Z,17.40
2023-05-01T10:54:52.388Z,17.50
2023-05-01T10:57:46.217Z,17.60
2023-05-01T11:00:34.339Z,17.40
2023-05-01T11:03:36.535Z,17.30
2023-05-01T11:06:24.016Z,17.40
2023-05-01T11:09:39.876Z,17.50
2023-05-01T11:12:53.953Z,17.70
2023-05-01T11:15:41.274Z,17.80
2023-05-01T11:18:51.741Z,17.80
2023-05-01T11:21:40.697Z,18.00
2023-05-01T11:24:33.831Z,18.10
2023-05-01T11:27:22.738Z,18.10
2023-05-01T11:30:10.967Z,18.20
2023-05-01T11:32:57.453Z,18.30
2023-05-01T11:35:45.027Z,18.40
2023-05-01T11:38:31.896Z,18.30
2023-05-01T11:41:21.926Z,18.30
2023-05-01T11:44:12.350Z,18.40
2023-05-01T11:46:58.738Z,18.70
2023-05-01T11:49:46.166Z,19.10
2023-05-01T11:52:43.744Z,19.70
2023-05-01T11:55:33.269Z,20.00
2023-05-01T11:58:32.965Z,20.20
2023-05-01T12:01:21.186Z,20.30
2023-05-01T12:04:09.199Z,20.10
2023-05-01T12:06:56.125Z,19.90
2023-05-01T12:09:43.875Z,19.80
2023-05-01T12:12:30.691Z,19.90
2023-05-01T12:15:17.839Z,20.10
2023-05-01T12:18:06.742Z,20.20
2023-05-01T12:20:55.462Z,20.30
2023-05-01T12:23:42.127Z,20.10
2023-05-01T12:26:29.074Z,19.80
2023-05-01T12:29:15.399Z,19.60
2023-05-01T12:32:01.994Z,19.40
2023-05-01T12:34:50.387Z,19.30
2023-05-01T12:37:36.994Z,19.50
2023-05-01T12:40:23.893Z,19.30
2023-05-01T12:43:10.350Z,19.40
2023-05-01T12:45:56.850Z,19.30
2023-05-01T12:48:43.950Z,19.20
2023-05-01T12:51:31.967Z,19.20
2023-05-01T12:54:22.917Z,19.20
2023-05-01T12:57:10.670Z,19.30
2023-05-01T13:00:01.432Z,19.20
2023-05-01T13:02:48.911Z,19.10
2023-05-01T13:05:35.698Z,19.10
2023-05-01T13:08:32.116Z,18.90
2023-05-01T13:11:19.171Z,18.90
2023-05-01T13:14:09.994Z,18.70
2023-05-01T13:16:57.021Z,18.70
2023-05-01T13:19:44.091Z,18.70
2023-05-01T13:22:32.405Z,18.70
2023-05-01T13:25:21.484Z,18.60
2023-05-01T13:28:09.297Z,18.50
2023-05-01T13:30:56.141Z,18.50
2023-05-01T13:33:43.510Z,18.40
2023-05-01T13:36:33.824Z,18.40
2023-05-01T13:39:21.537Z,18.20
2023-05-01T13:42:09.856Z,18.40
2023-05-01T13:44:57.446Z,18.40
2023-05-01T13:47:44.432Z,18.50
2023-05-01T13:50:31.467Z,18.40
2023-05-01T13:53:27.146Z,18.40
2023-05-01T13:56:15.175Z,18.10
2023-05-01T13:59:02.073Z,17.90
2023-05-01T14:01:49.118Z,17.80
2023-05-01T14:04:36.716Z,17.80
2023-05-01T14:07:24.727Z,18.00
2023-05-01T14:10:12.873Z,18.20
2023-05-01T14:13:00.167Z,18.30
2023-05-01T14:15:47.319Z,18.20
2023-05-01T14:18:35.227Z,18.00
2023-05-01T14:21:24.026Z,17.80
2023-05-01T14:24:11.142Z,17.70
2023-05-01T14:26:59.002Z,17.70
2023-05-01T14:29:46.018Z,17.80
2023-05-01T14:32:41.253Z,18.00
2023-05-01T14:35:28.062Z,18.20
2023-05-01T14:38:16.511Z,18.30
2023-05-01T14:41:04.629Z,18.40
2023-05-01T14:43:53.612Z,18.40
2023-05-01T14:46:46.087Z,18.40
2023-05-01T14:49:33.161Z,18.50
2023-05-01T14:52:21.331Z,18.50
2023-05-01T14:55:09.536Z,18.50
2023-05-01T14:57:56.617Z,18.60
2023-05-01T15:00:44.310Z,18.50
2023-05-01T15:03:32.019Z,18.50
2023-05-01T15:06:18.615Z,18.50
2023-05-01T15:09:05.667Z,18.40
2023-05-01T15:11:52.144Z,18.40
2023-05-01T15:14:38.596Z,18.30
2023-05-01T15:17:27.121Z,18.30
2023-05-01T15:20:14.047Z,18.20
2023-05-01T15:23:01.074Z,18.10
2023-05-01T15:25:50.444Z,18.10
2023-05-01T15:28:37.169Z,18.10
2023-05-01T15:31:23.586Z,18.20
2023-05-01T15:34:11.867Z,18.20
2023-05-01T15:36:58.363Z,18.20
2023-05-01T15:39:45.264Z,18.20
2023-05-01T15:42:31.789Z,18.20
2023-05-01T15:45:18.574Z,18.30
2023-05-01T15:48:06.286Z,18.40
2023-05-01T15:50:54.371Z,18.40
2023-05-01T15:53:41.343Z,18.40
2023-05-01T15:56:27.816Z,18.40
2023-05-01T15:59:14.427Z,18.50
2023-05-01T16:02:01.109Z,18.40
2023-05-01T16:04:47.804Z,18.40
2023-05-01T16:07:36.150Z,18.40
2023-05-01T16:10:22.788Z,18.40
2023-05-01T16:13:09.545Z,18.40
2023-05-01T16:15:56.300Z,18.50
2023-05-01T16:18:43.298Z,18.40
2023-05-01T16:21:29.873Z,18.40
2023-05-01T16:24:17.737Z,18.30
2023-05-01T16:27:04.676Z,18.40
2023-05-01T16:29:51.538Z,18.40
2023-05-01T16:32:38.931Z,18.50
2023-05-01T16:35:28.989Z,18.50
2023-05-01T16:38:15.773Z,18.30
2023-05-01T16:41:03.801Z,18.30
2023-05-01T16:43:50.462Z,18.20
2023-05-01T16:46:37.221Z,18.10
2023-05-01T16:49:27.332Z,18.00
2023-05-01T16:52:15.635Z,17.80
2023-05-01T16:55:02.569Z,17.90
2023-05-01T16:57:50.796Z,17.80
2023-05-01T17:00:37.590Z,17.70
2023-05-01T17:03:24.076Z,17.50
2023-05-01T17:06:10.610Z,17.40
2023-05-01T17:08:57.578Z,17.20
2023-05-01T17:11:44.452Z,16.90
2023-05-01T17:14:32.753Z,16.70
2023-05-01T17:17:19.277Z,16.60
2023-05-01T17:20:06.811Z,16.50
2023-05-01T17:22:53.524Z,16.40
2023-05-01T17:25:40.152Z,16.30
2023-05-01T17:28:26.458Z,16.30
2023-05-01T17:31:16.048Z,16.20
2023-05-01T17:34:04.282Z,16.10
2023-05-01T17:36:51.088Z,15.90
2023-05-01T17:39:37.875Z,15.90
2023-05-01T17:42:24.520Z,15.60
2023-05-01T17:45:11.971Z,15.70
2023-05-01T17:48:00.834Z,15.80
2023-05-01T17:50:47.588Z,15.70
2023-05-01T17:53:33.992Z,15.50
2023-05-01T17:56:21.180Z,15.50
2023-05-01T17:59:07.795Z,15.60
2023-05-01T18:01:54.332Z,15.50
2023-05-01T18:04:42.747Z,15.30
2023-05-01T18:07:30.487Z,15.30
2023-05-01T18:10:17.162Z,15.30
2023-05-01T18:13:04.092Z,15.50
2023-05-01T18:15:51.990Z,15.50
2023-05-01T18:18:38.715Z,15.40
2023-05-01T18:21:27.675Z,15.40
2023-05-01T18:24:14.410Z,15.50
2023-05-01T18:27:01.085Z,15.50
2023-05-01T18:29:48.448Z,15.50
2023-05-01T18:32:46.984Z,15.40
2023-05-01T18:35:34.520Z,15.40
2023-05-01T18:38:22.412Z,15.30
2023-05-01T18:41:08.997Z,15.30
2023-05-01T18:43:57.817Z,15.30
2023-05-01T18:46:45.324Z,15.30
2023-05-01T18:49:32.210Z,15.30
2023-05-01T18:52:18.698Z,15.30
2023-05-01T18:55:07.719Z,15.30
2023-05-01T18:57:54.541Z,15.20
2023-05-01T19:00:41.009Z,15.00
2023-05-01T19:03:27.306Z,15.00
2023-05-01T19:06:14.087Z,14.90
2023-05-01T19:09:00.754Z,14.90
2023-05-01T19:11:48.528Z,14.80
2023-05-01T19:14:34.978Z,14.70
2023-05-01T19:17:21.512Z,14.50
2023-05-01T19:20:09.338Z,14.20
2023-05-01T19:22:55.929Z,13.80
2023-05-01T19:25:42.673Z,13.60
2023-05-01T19:28:31.199Z,13.30
2023-05-01T19:31:19.557Z,13.40
2023-05-01T19:34:06.433Z,13.30
2023-05-01T19:36:56.583Z,13.30
2023-05-01T19:39:43.132Z,13.30
2023-05-01T19:42:29.614Z,13.40
2023-05-01T19:45:18.140Z,13.50
2023-05-01T19:48:06.083Z,13.60
2023-05-01T19:50:52.971Z,13.70
2023-05-01T19:53:40.020Z,13.80
2023-05-01T19:56:26.803Z,13.80
2023-05-01T19:59:13.226Z,13.90
2023-05-01T20:02:01.788Z,13.90
2023-05-01T20:04:49.040Z,13.80
2023-05-01T20:07:36.032Z,13.70
2023-05-01T20:10:22.706Z,13.40
2023-05-01T20:13:10.572Z,13.30
2023-05-01T20:15:57.579Z,13.20
2023-05-01T20:18:45.456Z,13.20
2023-05-01T20:21:32.627Z,13.10
2023-05-01T20:24:20.548Z,13.20
2023-05-01T20:27:07.276Z,13.20
2023-05-01T20:29:53.704Z,13.20
2023-05-01T20:32:42.593Z,13.10
2023-05-01T20:35:30.873Z,13.10
2023-05-01T20:38:17.791Z,12.90
2023-05-01T20:41:04.158Z,13.00
2023-05-01T20:43:51.189Z,13.10
2023-05-01T20:46:38.029Z,13.20
2023-05-01T20:49:25.015Z,13.20
2023-05-01T20:52:12.703Z,13.20
2023-05-01T20:54:59.951Z,13.30
2023-05-01T20:57:46.560Z,13.40
2023-05-01T21:00:32.938Z,13.40
2023-05-01T21:03:19.311Z,13.40
2023-05-01T21:06:06.111Z,13.50
2023-05-01T21:08:54.457Z,13.50
2023-05-01T21:11:41.307Z,13.30
2023-05-01T21:14:28.895Z,13.30
2023-05-01T21:17:16.645Z,13.30
2023-05-01T21:20:05.607Z,13.20
2023-05-01T21:22:52.534Z,13.20
2023-05-01T21:25:40.850Z,13.30
2023-05-01T21:28:27.596Z,13.30
2023-05-01T21:31:14.952Z,13.40
2023-05-01T21:34:03.418Z,13.30
2023-05-01T21:36:50.183Z,13.30
2023-05-01T21:39:37.568Z,13.30
2023-05-01T21:42:31.471Z,13.40
2023-05-01T21:45:20.774Z,13.40
2023-05-01T21:48:08.701Z,13.50
2023-05-01T21:50:56.635Z,13.50
2023-05-01T21:53:43.788Z,13.60
2023-05-01T21:56:30.422Z,13.60
2023-05-01T21:59:19.122Z,13.50
2023-05-01T22:02:08.254Z,13.40
2023-05-01T22:04:54.787Z,13.30
2023-05-01T22:07:42.383Z,13.30
2023-05-01T22:10:29.695Z,13.20
2023-05-01T22:13:16.215Z,13.10
2023-05-01T22:16:04.032Z,13.10
2023-05-01T22:18:51.304Z,13.00
2023-05-01T22:21:37.670Z,13.00
2023-05-01T22:24:24.137Z,13.00
2023-05-01T22:27:11.340Z,13.10
2023-05-01T22:29:58.436Z,13.20
2023-05-01T22:32:46.686Z,13.10
2023-05-01T22:35:33.286Z,13.00
2023-05-01T22:38:19.739Z,12.90
2023-05-01T22:41:06.834Z,12.80
2023-05-01T22:43:53.297Z,12.80
2023-05-01T22:46:40.077Z,12.90
2023-05-01T22:49:28.677Z,12.90
2023-05-01T22:52:15.424Z,12.90
2023-05-01T22:55:02.163Z,13.00
2023-05-01T22:57:48.984Z,13.00
2023-05-01T23:00:35.514Z,13.10
2023-05-01T23:03:22.274Z,13.10
2023-05-01T23:06:10.509Z,13.10
2023-05-01T23:08:57.725Z,13.10
2023-05-01T23:11:47.472Z,13.10
2023-05-01T23:14:34.834Z,13.10
2023-05-01T23:17:21.733Z,13.10
2023-05-01T23:20:10.071Z,13.20
2023-05-01T23:22:58.266Z,13.30
2023-05-01T23:25:47.306Z,13.10
2023-05-01T23:28:33.843Z,12.90
2023-05-01T23:31:25.377Z,13.00
2023-05-01T23:34:15.798Z,12.90
2023-05-01T23:37:03.027Z,12.70
2023-05-01T23:39:53.373Z,12.50
2023-05-01T23:42:40.803Z,12.50
2023-05-01T23:45:27.184Z,12.60
2023-05-01T23:48:14.098Z,12.60
2023-05-01T23:51:01.096Z,12.50
2023-05-01T23:53:47.815Z,12.50
2023-05-01T23:56:35.864Z,12.50
2023-05-01T23:59:22.591Z,12.60
